Time;durP1;ratioP1;P1;durP2;ratioP2;P2;SDS_P1;SDS_P2;PMS_P1;PMS_P2;Temp;Humidity;BMP_temperature;BMP_pressure;BME280_temperature;BME280_humidity;BME280_pressure;Samples;Min_cycle;Max_cycle;Signal;HPM_P1;HPM_P2
2022/11/29 00:01:18;;;;;;;;;;;;;;;7.16;78.08;100173.06;5113911;28;19918;-87
2022/11/29 00:03:44;;;;;;;;;;;;;;;6.88;78.59;100172.88;5114157;28;19918;-87
2022/11/29 00:06:13;;;;;;;;;;;;;;;6.96;78.10;100179.03;5113924;28;19912;-86
2022/11/29 00:08:40;;;;;;;;;;;;;;;6.87;78.53;100172.84;5113788;28;19958;-86
2022/11/29 00:11:06;;;;;;;;;;;;;;;6.99;78.44;100179.06;5113919;28;19915;-87
2022/11/29 00:13:31;;;;;;;;;;;;;;;6.98;79.04;100174.72;5113402;27;19915;-87
2022/11/29 00:16:09;;;;;;;;;;;;;;;6.90;79.26;100178.13;5133727;27;19917;-86
2022/11/29 00:18:34;;;;;;;;;;;;;;;6.90;79.35;100179.00;5115853;27;19916;-86
2022/11/29 00:21:03;;;;;;;;;;;;;;;6.95;79.18;100177.31;5113782;28;19912;-86
2022/11/29 00:23:28;;;;;;;;;;;;;;;6.86;79.37;100178.97;5126085;27;19920;-87
2022/11/29 00:25:53;;;;;;;;;;;;;;;6.91;79.67;100175.50;5133473;27;19915;-86
2022/11/29 00:28:19;;;;;;;;;;;;;;;6.95;79.48;100174.69;5133704;27;19922;-86
2022/11/29 00:30:44;;;;;;;;;;;;;;;6.92;79.26;100177.28;5115284;27;19911;-87
2022/11/29 00:33:09;;;;;;;;;;;;;;;6.87;79.50;100180.72;5133749;27;19911;-87
2022/11/29 00:35:35;;;;;;;;;;;;;;;6.93;79.89;100179.03;5133046;27;19961;-87
2022/11/29 00:38:00;;;;;;;;;;;;;;;7.03;79.24;100179.09;5094059;28;20290;-86
2022/11/29 00:40:25;;;;;;;;;;;;;;;7.13;79.07;100175.66;5121952;27;19916;-86
2022/11/29 00:42:51;;;;;;;;;;;;;;;7.06;78.77;100182.63;5133558;27;20011;-86
2022/11/29 00:45:16;;;;;;;;;;;;;;;6.86;79.55;100179.84;5127107;27;19965;-87
2022/11/29 00:47:41;;;;;;;;;;;;;;;6.99;78.90;100172.94;5132197;27;19962;-87
2022/11/29 00:50:07;;;;;;;;;;;;;;;7.10;79.00;100167.78;5133428;27;20391;-86
2022/11/29 00:52:32;;;;;;;;;;;;;;;7.12;79.04;100169.56;5133591;27;19915;-87
2022/11/29 00:54:57;;;;;;;;;;;;;;;7.16;78.91;100162.56;5133328;27;19911;-87
2022/11/29 00:57:23;;;;;;;;;;;;;;;7.28;78.10;100157.41;5116901;27;20002;-87
2022/11/29 00:59:48;;;;;;;;;;;;;;;7.05;78.26;100159.88;5112692;27;19915;-87
2022/11/29 01:02:13;;;;;;;;;;;;;;;7.19;78.38;100148.59;5112454;28;19911;-87
2022/11/29 01:04:38;;;;;;;;;;;;;;;7.07;78.58;100152.88;5112718;28;19918;-87
2022/11/29 01:07:04;;;;;;;;;;;;;;;6.99;78.62;100141.47;5112909;28;20410;-87
2022/11/29 01:09:29;;;;;;;;;;;;;;;6.88;79.07;100140.53;5128070;27;19918;-88
2022/11/29 01:11:54;;;;;;;;;;;;;;;6.69;79.26;100140.41;5132794;27;19919;-87
2022/11/29 01:14:20;;;;;;;;;;;;;;;6.68;80.24;100135.13;5129166;27;20374;-87
2022/11/29 01:16:45;;;;;;;;;;;;;;;6.67;80.30;100136.00;5132757;27;20389;-86
2022/11/29 01:19:10;;;;;;;;;;;;;;;6.64;80.56;100136.84;5132813;27;19911;-87
2022/11/29 01:21:35;;;;;;;;;;;;;;;6.84;79.99;100141.38;5132927;27;19922;-86
2022/11/29 01:24:01;;;;;;;;;;;;;;;6.91;79.67;100136.19;5132372;27;20436;-87
2022/11/29 01:26:28;;;;;;;;;;;;;;;6.91;79.65;100136.19;5132458;27;19915;-86
2022/11/29 01:28:54;;;;;;;;;;;;;;;6.72;79.37;100144.75;5126444;27;19915;-87
2022/11/29 01:31:25;;;;;;;;;;;;;;;6.75;80.15;100143.06;5112328;28;19911;-87
2022/11/29 01:33:53;;;;;;;;;;;;;;;6.85;80.19;100143.13;5112098;28;20434;-87
2022/11/29 01:36:19;;;;;;;;;;;;;;;6.97;79.53;100138.84;5112195;28;20450;-87
2022/11/29 01:38:44;;;;;;;;;;;;;;;7.02;79.66;100151.13;5111616;28;19923;-87
2022/11/29 01:41:11;;;;;;;;;;;;;;;7.13;79.24;100134.56;5112065;28;19938;-87
2022/11/29 01:43:55;;;;;;;;;;;;;;;7.20;78.82;100138.13;5112002;28;19908;-87
2022/11/29 01:46:20;;;;;;;;;;;;;;;7.22;79.02;100133.75;5117266;27;19915;-87
2022/11/29 01:48:46;;;;;;;;;;;;;;;7.20;79.33;100134.59;5110953;27;20293;-87
2022/11/29 01:51:12;;;;;;;;;;;;;;;7.20;78.41;100134.59;5111746;28;19911;-88
2022/11/29 01:53:37;;;;;;;;;;;;;;;7.21;78.38;100131.97;5112150;28;20309;-87
2022/11/29 01:56:04;;;;;;;;;;;;;;;7.19;78.57;100133.72;5117501;27;20392;-87
2022/11/29 01:58:30;;;;;;;;;;;;;;;7.22;78.04;100127.63;5131788;27;19915;-87
2022/11/29 02:00:56;;;;;;;;;;;;;;;7.16;78.37;100123.22;5130256;28;19923;-87
2022/11/29 02:03:21;;;;;;;;;;;;;;;7.13;78.60;100128.44;5132093;28;19908;-87
2022/11/29 02:05:49;;;;;;;;;;;;;;;7.00;78.98;100119.63;5122524;28;20064;-87
2022/11/29 02:08:17;;;;;;;;;;;;;;;7.03;78.30;100127.53;5111737;28;19973;-87
2022/11/29 02:10:48;;;;;;;;;;;;;;;6.76;79.76;100122.94;5112249;28;19908;-86
2022/11/29 02:13:16;;;;;;;;;;;;;;;6.89;79.39;100116.94;5112167;28;20010;-87
2022/11/29 02:15:45;;;;;;;;;;;;;;;6.93;79.42;100118.69;5111477;28;19907;-86
2022/11/29 02:18:19;;;;;;;;;;;;;;;6.99;78.64;100123.97;5126645;28;19919;-87
2022/11/29 02:21:03;;;;;;;;;;;;;;;6.99;79.08;100117.88;5112696;28;19916;-87
2022/11/29 02:23:28;;;;;;;;;;;;;;;6.76;79.65;100122.94;5093066;28;19981;-87
2022/11/29 02:25:56;;;;;;;;;;;;;;;6.96;79.51;100128.34;5111644;28;19915;-87
2022/11/29 02:28:31;;;;;;;;;;;;;;;6.96;79.26;100125.72;5111670;28;19912;-87
2022/11/29 02:31:05;;;;;;;;;;;;;;;6.84;79.65;100120.38;5111151;28;19916;-87
2022/11/29 02:33:49;;;;;;;;;;;;;;;6.90;79.76;100121.28;5111563;28;19911;-87
2022/11/29 02:36:23;;;;;;;;;;;;;;;6.91;79.85;100125.69;5111563;28;19958;-87
2022/11/29 02:38:49;;;;;;;;;;;;;;;6.95;80.42;100127.47;5118073;28;19915;-87
2022/11/29 02:41:17;;;;;;;;;;;;;;;6.92;80.13;100119.59;5131406;28;20452;-87
2022/11/29 02:43:45;;;;;;;;;;;;;;;6.99;80.11;100123.97;5131792;28;19919;-87
2022/11/29 02:46:10;;;;;;;;;;;;;;;6.74;80.24;100128.19;5131856;28;19943;-87
2022/11/29 02:48:36;;;;;;;;;;;;;;;6.76;80.53;100131.69;5121064;28;20013;-87
2022/11/29 02:51:21;;;;;;;;;;;;;;;6.74;81.23;100125.56;5111353;28;19907;-88
2022/11/29 02:53:47;;;;;;;;;;;;;;;6.76;80.95;100120.34;5110667;28;20059;-88
2022/11/29 02:56:21;;;;;;;;;;;;;;;6.87;80.20;100129.13;5117248;28;19991;-88
2022/11/29 02:58:55;;;;;;;;;;;;;;;6.73;80.93;100130.78;5131289;27;19919;-88
2022/11/29 03:01:21;;;;;;;;;;;;;;;6.80;81.33;100128.22;5135409;27;19911;-87
2022/11/29 03:04:02;;;;;;;;;;;;;;;6.80;80.92;100130.00;5135055;27;19919;-88
2022/11/29 03:06:37;;;;;;;;;;;;;;;6.79;80.83;100136.09;5096368;28;20433;-87
2022/11/29 03:09:18;;;;;;;;;;;;;;;6.85;80.62;100130.03;5114768;27;19915;-88
2022/11/29 03:11:50;;;;;;;;;;;;;;;6.66;81.17;100135.13;5115051;27;19923;-87
2022/11/29 03:14:27;;;;;;;;;;;;;;;6.52;82.10;100127.16;5121918;27;19923;-87
2022/11/29 03:16:55;;;;;;;;;;;;;;;6.34;82.24;100135.72;5135109;27;19911;-88
2022/11/29 03:19:30;;;;;;;;;;;;;;;6.30;83.14;100133.91;5134882;27;19923;-88
2022/11/29 03:21:58;;;;;;;;;;;;;;;6.20;83.71;100132.97;5135328;27;19971;-88
2022/11/29 03:24:34;;;;;;;;;;;;;;;6.28;84.20;100122.56;5135342;27;19990;-86
2022/11/29 03:27:04;;;;;;;;;;;;;;;6.14;83.86;100124.19;5135219;27;20388;-88
2022/11/29 03:29:36;;;;;;;;;;;;;;;6.20;84.29;100125.09;5132022;27;19919;-88
2022/11/29 03:32:04;;;;;;;;;;;;;;;6.30;83.87;100112.97;5117224;27;20468;-86
2022/11/29 03:34:48;;;;;;;;;;;;;;;6.30;83.98;100117.34;5129385;27;19915;-87
2022/11/29 03:37:32;;;;;;;;;;;;;;;6.35;83.66;100119.13;5134976;27;19915;-88
2022/11/29 03:40:03;;;;;;;;;;;;;;;6.30;83.99;100122.56;5135137;27;19911;-87
2022/11/29 03:42:36;;;;;;;;;;;;;;;6.02;84.59;100120.56;5126815;27;20450;-88
2022/11/29 03:45:17;;;;;;;;;;;;;;;6.14;85.17;100127.66;5128938;27;20002;-88
2022/11/29 03:47:58;;;;;;;;;;;;;;;6.19;84.82;100125.97;5114326;28;19922;-88
2022/11/29 03:50:27;;;;;;;;;;;;;;;6.13;85.11;100131.13;5114387;28;19972;-88
2022/11/29 03:52:55;;;;;;;;;;;;;;;5.95;85.31;100120.44;5114367;28;19919;-87
2022/11/29 03:55:20;;;;;;;;;;;;;;;5.68;86.33;100130.63;5114303;27;19954;-88
2022/11/29 03:57:45;;;;;;;;;;;;;;;5.91;86.77;100133.50;5113941;28;20404;-88
2022/11/29 04:00:12;;;;;;;;;;;;;;;6.01;86.16;100128.38;5113810;28;19919;-87
2022/11/29 04:02:43;;;;;;;;;;;;;;;5.99;86.38;100131.00;5113595;27;19959;-85
2022/11/29 04:05:26;;;;;;;;;;;;;;;5.99;86.42;100133.63;5120405;27;19922;-87
2022/11/29 04:07:55;;;;;;;;;;;;;;;6.18;85.80;100137.31;5124549;27;19911;-88
2022/11/29 04:10:32;;;;;;;;;;;;;;;6.42;85.10;100141.91;5126268;27;19923;-87
2022/11/29 04:13:16;;;;;;;;;;;;;;;6.43;84.49;100138.41;5099105;27;19915;-86
2022/11/29 04:15:44;;;;;;;;;;;;;;;6.53;84.44;100139.38;5122115;27;20006;-86
2022/11/29 04:18:33;;;;;;;;;;;;;;;6.62;83.94;100141.19;5113818;28;19919;-85
2022/11/29 04:21:16;;;;;;;;;;;;;;;6.60;83.40;100141.19;5105588;27;19922;-85
2022/11/29 04:24:00;;;;;;;;;;;;;;;6.62;83.83;100138.56;5123827;27;19926;-88
2022/11/29 04:26:26;;;;;;;;;;;;;;;6.56;84.07;100138.53;5113571;28;19915;-86
2022/11/29 04:28:57;;;;;;;;;;;;;;;6.72;83.29;100135.16;5115532;27;19924;-87
2022/11/29 04:31:31;;;;;;;;;;;;;;;6.66;83.35;100134.22;5115179;27;20312;-87
2022/11/29 04:34:06;;;;;;;;;;;;;;;6.59;83.51;100144.66;5114502;27;19915;-89
2022/11/29 04:36:37;;;;;;;;;;;;;;;6.75;84.11;100144.78;5117101;27;19915;-87
2022/11/29 04:39:17;;;;;;;;;;;;;;;6.87;83.03;100146.63;5131142;27;20323;-87
2022/11/29 04:42:01;;;;;;;;;;;;;;;6.63;83.41;100148.22;5124442;27;19915;-87
2022/11/29 04:44:29;;;;;;;;;;;;;;;6.47;83.36;100147.19;5131340;27;19918;-85
2022/11/29 04:46:54;;;;;;;;;;;;;;;6.75;83.73;100147.41;5114937;27;19927;-86
2022/11/29 04:49:20;;;;;;;;;;;;;;;6.94;83.26;100140.56;5100315;27;20618;-84
2022/11/29 04:51:45;;;;;;;;;;;;;;;6.91;82.54;100143.19;5118168;27;19916;-83
2022/11/29 04:54:13;;;;;;;;;;;;;;;6.83;82.91;100151.00;5132262;27;20013;-84
2022/11/29 04:56:47;;;;;;;;;;;;;;;6.94;82.56;100159.81;5131266;27;19950;-86
2022/11/29 04:59:30;;;;;;;;;;;;;;;6.91;82.48;100146.66;5129659;27;19918;-85
2022/11/29 05:02:05;;;;;;;;;;;;;;;6.70;82.87;100149.13;5130329;27;20369;-86
2022/11/29 05:04:38;;;;;;;;;;;;;;;6.79;82.88;100159.69;5128155;27;19934;-86
2022/11/29 05:07:22;;;;;;;;;;;;;;;6.89;82.75;100156.28;5129512;27;19916;-90
2022/11/29 05:10:04;;;;;;;;;;;;;;;7.05;82.52;100157.25;5128248;27;19912;-87
2022/11/29 05:12:37;;;;;;;;;;;;;;;6.95;82.33;100155.44;5118422;27;20392;-89
2022/11/29 05:15:23;;;;;;;;;;;;;;;6.99;82.62;100157.22;5138354;27;19914;-90
2022/11/29 05:17:57;;;;;;;;;;;;;;;6.87;82.61;100170.22;5064754;27;19912;-86
2022/11/29 05:20:22;;;;;;;;;;;;;;;6.54;83.85;100166.47;5126501;27;19923;-87
2022/11/29 05:23:05;;;;;;;;;;;;;;;6.71;83.68;100170.13;5117458;27;20317;-85
2022/11/29 05:25:36;;;;;;;;;;;;;;;6.89;83.34;100172.03;5124535;27;20013;-87
2022/11/29 05:28:08;;;;;;;;;;;;;;;6.82;83.45;100183.31;5133761;27;19911;-86
2022/11/29 05:30:43;;;;;;;;;;;;;;;7.04;83.22;100179.09;5131216;27;19919;-89
2022/11/29 05:33:08;;;;;;;;;;;;;;;7.10;82.20;100180.91;5118371;27;19915;-86
2022/11/29 05:35:51;;;;;;;;;;;;;;;7.16;82.20;100181.81;5131534;27;19911;-87
2022/11/29 05:38:39;;;;;;;;;;;;;;;7.20;82.25;100179.19;5131821;27;19998;-86
2022/11/29 05:41:04;;;;;;;;;;;;;;;7.02;82.26;100188.72;5118076;27;19990;-86
2022/11/29 05:43:32;;;;;;;;;;;;;;;7.03;82.45;100195.72;5132150;27;20015;-85
2022/11/29 05:46:03;;;;;;;;;;;;;;;6.80;83.29;100193.78;5127364;27;19916;-84
2022/11/29 05:48:47;;;;;;;;;;;;;;;6.84;83.55;100185.94;5130555;27;19923;-85
2022/11/29 05:51:15;;;;;;;;;;;;;;;6.85;83.26;100193.81;5131609;27;19959;-85
2022/11/29 05:53:48;;;;;;;;;;;;;;;6.75;84.10;100187.63;5131157;27;19922;-85
2022/11/29 05:56:14;;;;;;;;;;;;;;;7.03;83.50;100185.22;5124612;27;20283;-85
2022/11/29 05:58:47;;;;;;;;;;;;;;;6.99;83.35;100194.81;5129255;27;19915;-86
2022/11/29 06:01:21;;;;;;;;;;;;;;;6.92;83.21;100195.66;5131937;27;19911;-85
2022/11/29 06:03:52;;;;;;;;;;;;;;;6.88;84.03;100190.34;5131910;28;19907;-86
2022/11/29 06:06:17;;;;;;;;;;;;;;;6.95;83.70;100189.53;5129109;28;19916;-87
2022/11/29 06:09:04;;;;;;;;;;;;;;;7.09;83.23;100193.16;5125350;28;20408;-87
2022/11/29 06:11:31;;;;;;;;;;;;;;;7.01;83.42;100193.94;5122390;28;19972;-87
2022/11/29 06:14:00;;;;;;;;;;;;;;;6.88;84.39;100191.22;5114543;28;19918;-87
2022/11/29 06:16:25;;;;;;;;;;;;;;;6.98;84.23;100193.06;5115524;28;19922;-86
2022/11/29 06:18:50;;;;;;;;;;;;;;;7.15;84.16;100190.56;5124347;28;20005;-86
2022/11/29 06:21:24;;;;;;;;;;;;;;;7.26;83.75;100187.13;5127683;28;20429;-86
2022/11/29 06:23:57;;;;;;;;;;;;;;;7.17;83.88;100188.81;5129334;28;19915;-87
2022/11/29 06:26:29;;;;;;;;;;;;;;;6.99;84.02;100193.94;5114064;28;20297;-87
2022/11/29 06:29:19;;;;;;;;;;;;;;;7.09;84.06;100189.63;5113222;28;19915;-88
2022/11/29 06:31:50;;;;;;;;;;;;;;;6.91;85.20;100188.63;5124117;28;19915;-88
2022/11/29 06:34:22;;;;;;;;;;;;;;;6.96;84.50;100193.91;5120278;27;19983;-87
2022/11/29 06:37:23;;;;;;;;;;;;;;;7.00;85.00;100190.47;5121482;27;19972;-87
2022/11/29 06:39:49;;;;;;;;;;;;;;;7.09;84.26;100187.91;5076617;28;19923;-87
2022/11/29 06:42:14;;;;;;;;;;;;;;;6.93;84.31;100186.88;5113096;27;19916;-87
2022/11/29 06:44:39;;;;;;;;;;;;;;;7.02;84.74;100193.09;5132507;27;19957;-87
2022/11/29 06:47:05;;;;;;;;;;;;;;;6.56;86.23;100186.56;5134796;27;19955;-87
2022/11/29 06:49:34;;;;;;;;;;;;;;;6.37;87.80;100189.91;5114374;27;20006;-86
2022/11/29 06:52:21;;;;;;;;;;;;;;;6.76;86.52;100188.50;5127434;27;19946;-86
2022/11/29 06:54:50;;;;;;;;;;;;;;;6.83;86.26;100179.84;5133744;27;19911;-87
2022/11/29 06:57:15;;;;;;;;;;;;;;;6.65;86.60;100185.78;5135938;27;19911;-86
2022/11/29 06:59:52;;;;;;;;;;;;;;;6.89;86.39;100185.13;5135477;27;20361;-89
2022/11/29 07:02:34;;;;;;;;;;;;;;;6.84;86.34;100193.81;5135051;27;19917;-86
2022/11/29 07:04:59;;;;;;;;;;;;;;;7.05;85.81;100191.34;5135632;27;20411;-85
2022/11/29 07:07:24;;;;;;;;;;;;;;;6.93;85.71;100197.38;5122725;27;19960;-85
2022/11/29 07:09:52;;;;;;;;;;;;;;;7.03;85.37;100194.81;5133374;27;19980;-85
2022/11/29 07:12:17;;;;;;;;;;;;;;;7.18;84.73;100200.19;5135316;27;19970;-86
2022/11/29 07:14:43;;;;;;;;;;;;;;;7.21;85.81;100196.72;5135273;27;19951;-86
2022/11/29 07:17:14;;;;;;;;;;;;;;;7.27;85.51;100199.38;5135025;27;20373;-87
2022/11/29 07:19:42;;;;;;;;;;;;;;;7.39;85.22;100198.59;5134962;27;19997;-85
2022/11/29 07:22:23;;;;;;;;;;;;;;;7.42;84.79;100194.22;5130707;27;19915;-84
2022/11/29 07:24:54;;;;;;;;;;;;;;;7.44;84.92;100188.97;5118547;27;19911;-84
2022/11/29 07:27:23;;;;;;;;;;;;;;;7.56;84.93;100191.69;5124377;27;19911;-85
2022/11/29 07:30:04;;;;;;;;;;;;;;;7.50;84.11;100189.88;5134988;27;19914;-84
2022/11/29 07:32:39;;;;;;;;;;;;;;;7.30;85.69;100187.16;5128485;27;19915;-83
2022/11/29 07:35:13;;;;;;;;;;;;;;;7.60;85.17;100188.22;5108947;27;19911;-87
2022/11/29 07:37:57;;;;;;;;;;;;;;;7.49;84.47;100188.16;5129702;27;20359;-87
2022/11/29 07:40:39;;;;;;;;;;;;;;;7.39;84.51;100181.09;5124838;27;19916;-86
2022/11/29 07:43:23;;;;;;;;;;;;;;;7.46;85.01;100181.97;5134400;27;19915;-87
2022/11/29 07:45:48;;;;;;;;;;;;;;;7.49;85.50;100180.28;5094128;28;19912;-86
2022/11/29 07:48:15;;;;;;;;;;;;;;;7.73;84.61;100185.63;5124992;27;19911;-86
2022/11/29 07:50:40;;;;;;;;;;;;;;;7.61;84.80;100189.06;5133981;27;19941;-87
2022/11/29 07:53:05;;;;;;;;;;;;;;;7.97;83.78;100188.38;5115162;27;19911;-86
2022/11/29 07:55:32;;;;;;;;;;;;;;;7.94;83.47;100190.06;5130990;27;19969;-84
2022/11/29 07:57:57;;;;;;;;;;;;;;;7.98;83.35;100194.47;5119771;27;19916;-84
2022/11/29 08:00:22;;;;;;;;;;;;;;;7.99;83.25;100191.84;5132791;27;19915;-85
2022/11/29 08:02:49;;;;;;;;;;;;;;;7.84;84.50;100189.19;5133797;27;19908;-83
2022/11/29 08:05:14;;;;;;;;;;;;;;;7.72;85.25;100197.88;5132677;27;19998;-84
2022/11/29 08:07:40;;;;;;;;;;;;;;;7.88;84.98;100193.59;5133596;27;20005;-84
2022/11/29 08:10:07;;;;;;;;;;;;;;;7.97;84.75;100195.34;5134123;27;20361;-84
2022/11/29 08:12:32;;;;;;;;;;;;;;;7.84;83.41;100195.28;5133383;27;19911;-86
2022/11/29 08:14:58;;;;;;;;;;;;;;;7.67;85.32;100192.59;5132326;27;20388;-84
2022/11/29 08:17:24;;;;;;;;;;;;;;;7.82;85.64;100196.19;5115673;27;19922;-84
2022/11/29 08:19:50;;;;;;;;;;;;;;;7.69;85.32;100195.22;5119892;27;20422;-85
2022/11/29 08:22:16;;;;;;;;;;;;;;;7.85;84.82;100193.56;5131662;27;20010;-85
2022/11/29 08:24:41;;;;;;;;;;;;;;;8.05;83.56;100194.50;5114539;27;19915;-85
2022/11/29 08:27:06;;;;;;;;;;;;;;;7.95;84.83;100191.84;5119628;27;19919;-84
2022/11/29 08:29:31;;;;;;;;;;;;;;;8.13;83.46;100191.03;5130541;27;19964;-85
2022/11/29 08:31:57;;;;;;;;;;;;;;;8.00;83.28;100191.00;5132265;27;19923;-85
2022/11/29 08:34:23;;;;;;;;;;;;;;;8.03;84.01;100188.38;5125720;27;19920;-86
2022/11/29 08:36:49;;;;;;;;;;;;;;;8.06;84.23;100184.88;5112495;28;20297;-85
2022/11/29 08:39:14;;;;;;;;;;;;;;;8.11;83.38;100190.13;5107701;27;19988;-85
2022/11/29 08:41:40;;;;;;;;;;;;;;;7.95;83.71;100190.09;5124166;27;20381;-86
2022/11/29 08:44:05;;;;;;;;;;;;;;;8.16;82.88;100184.03;5130404;27;20452;-87
2022/11/29 08:49:14;;;;;;;;;;;;;;;7.99;82.92;100178.72;5133548;27;19918;-87
2022/11/29 08:51:40;;;;;;;;;;;;;;;8.15;82.79;100174.38;5133433;27;19911;-86
2022/11/29 08:54:05;;;;;;;;;;;;;;;8.04;83.08;100187.50;5131584;27;19911;-86
2022/11/29 08:56:30;;;;;;;;;;;;;;;7.57;83.04;100187.28;5132838;27;19960;-85
2022/11/29 08:58:56;;;;;;;;;;;;;;;7.95;83.21;100173.47;5132717;27;19911;-87
2022/11/29 09:01:21;;;;;;;;;;;;;;;8.13;83.30;100175.28;5127232;27;19916;-84
2022/11/29 09:03:58;;;;;;;;;;;;;;;7.88;83.33;100183.06;5111840;28;19954;-86
2022/11/29 09:06:24;;;;;;;;;;;;;;;7.89;82.64;100179.56;5129198;27;19926;-85
2022/11/29 09:08:50;;;;;;;;;;;;;;;8.04;81.94;100176.97;5123411;27;20297;-85
2022/11/29 09:11:16;;;;;;;;;;;;;;;8.12;81.77;100173.50;5131584;27;20368;-85
2022/11/29 09:13:43;;;;;;;;;;;;;;;8.32;82.15;100170.94;5132328;27;19918;-85
2022/11/29 09:16:09;;;;;;;;;;;;;;;8.26;82.53;100161.25;5112724;27;19915;-85
2022/11/29 09:18:36;;;;;;;;;;;;;;;8.17;83.78;100156.00;5123048;27;19919;-85
2022/11/29 09:21:03;;;;;;;;;;;;;;;8.36;84.75;100159.56;5132582;27;19915;-84
2022/11/29 09:23:29;;;;;;;;;;;;;;;8.37;83.88;100154.28;5132681;27;19912;-86
2022/11/29 09:25:55;;;;;;;;;;;;;;;8.56;82.32;100146.47;5132340;27;19923;-86
2022/11/29 09:28:20;;;;;;;;;;;;;;;8.19;81.17;100147.25;5130223;27;20007;-85
2022/11/29 09:30:45;;;;;;;;;;;;;;;8.21;81.20;100144.63;5128877;27;19951;-85
2022/11/29 09:33:11;;;;;;;;;;;;;;;8.25;82.73;100133.25;5132871;27;20002;-85
2022/11/29 09:35:36;;;;;;;;;;;;;;;8.54;81.68;100129.78;5134586;27;19932;-85
2022/11/29 09:38:01;;;;;;;;;;;;;;;8.64;81.70;100134.16;5133814;27;19911;-86
2022/11/29 09:40:31;;;;;;;;;;;;;;;8.50;83.25;100134.16;5133597;27;20350;-86
2022/11/29 09:43:05;;;;;;;;;;;;;;;8.54;81.55;100128.06;5148426;27;19895;-83
2022/11/29 09:45:35;;;;;;;;;;;;;;;8.65;81.81;100125.41;5153416;27;19975;-85
2022/11/29 09:48:01;;;;;;;;;;;;;;;8.37;80.83;100119.22;5123602;27;19916;-85
2022/11/29 09:50:26;;;;;;;;;;;;;;;8.32;83.65;100118.34;5123367;27;19938;-86
2022/11/29 09:52:57;;;;;;;;;;;;;;;8.21;84.63;100116.56;5111486;28;19911;-84
2022/11/29 09:55:42;;;;;;;;;;;;;;;8.54;84.57;100120.16;5119110;27;19915;-86
2022/11/29 09:58:19;;;;;;;;;;;;;;;8.85;83.32;100113.97;5088932;28;20293;-85
2022/11/29 10:00:48;;;;;;;;;;;;;;;8.78;82.96;100115.75;5108776;28;19923;-84
2022/11/29 10:03:24;;;;;;;;;;;;;;;8.98;83.17;100118.38;5129169;27;19915;-84
2022/11/29 10:05:52;;;;;;;;;;;;;;;8.38;81.56;100124.47;5113176;28;20381;-86
2022/11/29 10:08:44;;;;;;;;;;;;;;;8.55;81.69;100132.41;5120794;28;19916;-87
2022/11/29 10:11:12;;;;;;;;;;;;;;;8.99;82.22;100120.13;5101663;27;19916;-84
2022/11/29 10:13:43;;;;;;;;;;;;;;;8.92;81.48;100113.97;5130707;27;19915;-85
2022/11/29 10:16:15;;;;;;;;;;;;;;;9.01;82.16;100113.09;5132724;27;19918;-86
2022/11/29 10:18:45;;;;;;;;;;;;;;;9.22;80.99;100104.28;5119851;27;19915;-86
2022/11/29 10:21:13;;;;;;;;;;;;;;;9.02;81.89;100104.34;5117375;27;19915;-87
2022/11/29 10:23:46;;;;;;;;;;;;;;;8.99;79.89;100106.97;5135250;27;19915;-85
2022/11/29 10:26:12;;;;;;;;;;;;;;;8.35;80.64;100108.72;5122957;27;20022;-84
2022/11/29 10:28:43;;;;;;;;;;;;;;;8.48;81.50;100106.13;5135113;27;20364;-84
2022/11/29 10:31:11;;;;;;;;;;;;;;;8.67;80.72;100101.75;5104270;27;20309;-86
2022/11/29 10:33:39;;;;;;;;;;;;;;;8.80;80.26;100105.22;5125775;27;20449;-86
2022/11/29 10:36:14;;;;;;;;;;;;;;;8.64;82.51;100113.13;5125929;27;19915;-85
2022/11/29 10:38:40;;;;;;;;;;;;;;;9.09;81.98;100113.06;5116233;27;19916;-85
2022/11/29 10:41:07;;;;;;;;;;;;;;;8.90;80.88;100096.47;5134853;27;19938;-87
2022/11/29 10:43:33;;;;;;;;;;;;;;;8.86;80.89;100094.69;5104093;27;20392;-86
2022/11/29 10:45:59;;;;;;;;;;;;;;;8.98;82.13;100093.81;5134384;27;19996;-87
2022/11/29 10:48:27;;;;;;;;;;;;;;;8.98;82.03;100096.44;5121335;27;19967;-87
2022/11/29 10:50:53;;;;;;;;;;;;;;;8.82;82.60;100095.56;5134159;27;19982;-87
2022/11/29 10:53:29;;;;;;;;;;;;;;;8.86;81.99;100087.66;5134614;27;19966;-86
2022/11/29 10:56:18;;;;;;;;;;;;;;;9.08;81.22;100085.00;5134642;27;19925;-86
2022/11/29 10:59:04;;;;;;;;;;;;;;;9.20;80.58;100090.22;5135696;27;19911;-87
2022/11/29 11:01:42;;;;;;;;;;;;;;;9.37;79.58;100087.53;5134485;27;19915;-86
2022/11/29 11:04:13;;;;;;;;;;;;;;;8.76;81.13;100096.47;5135267;27;19923;-86
2022/11/29 11:06:47;;;;;;;;;;;;;;;8.74;82.10;100090.31;5132909;27;19911;-86
2022/11/29 11:09:18;;;;;;;;;;;;;;;8.74;81.04;100090.31;5134599;27;19916;-86
2022/11/29 11:11:49;;;;;;;;;;;;;;;8.50;82.23;100089.47;5134831;27;19911;-87
2022/11/29 11:14:25;;;;;;;;;;;;;;;8.80;82.06;100082.44;5135008;27;19923;-87
2022/11/29 11:16:50;;;;;;;;;;;;;;;9.19;80.22;100090.22;5133819;27;20003;-87
2022/11/29 11:19:34;;;;;;;;;;;;;;;9.46;79.06;100078.72;5134620;27;20004;-87
2022/11/29 11:22:03;;;;;;;;;;;;;;;9.56;78.32;100080.44;5133064;27;19915;-88
2022/11/29 11:24:51;;;;;;;;;;;;;;;9.40;78.41;100084.88;5134460;27;19939;-88
2022/11/29 11:27:27;;;;;;;;;;;;;;;9.24;78.80;100077.94;5116838;27;19942;-90
2022/11/29 11:29:52;;;;;;;;;;;;;;;9.07;80.40;100073.59;5133953;27;19918;-90
2022/11/29 11:32:18;;;;;;;;;;;;;;;9.06;80.19;100078.88;5133841;27;20330;-90
2022/11/29 11:34:54;;;;;;;;;;;;;;;8.79;80.49;100078.06;5132565;27;19928;-90
2022/11/29 11:37:19;;;;;;;;;;;;;;;8.91;80.38;100074.50;5114357;27;19916;-88
2022/11/29 11:39:46;;;;;;;;;;;;;;;8.70;80.48;100070.19;5133532;27;20030;-90
2022/11/29 11:44:57;;;;;;;;;;;;;;;8.85;81.43;100069.25;5124908;27;19929;-87
2022/11/29 11:47:29;;;;;;;;;;;;;;;8.98;80.57;100065.72;5132724;27;20001;-87
2022/11/29 11:50:01;;;;;;;;;;;;;;;8.75;81.07;100071.03;5133494;27;20384;-87
2022/11/29 11:52:34;;;;;;;;;;;;;;;8.60;82.79;100064.03;5123247;27;19912;-87
2022/11/29 11:55:01;;;;;;;;;;;;;;;8.92;82.11;100066.63;5130402;27;19923;-86
2022/11/29 11:57:27;;;;;;;;;;;;;;;8.87;80.98;100070.16;5132929;27;19934;-89
2022/11/29 11:59:54;;;;;;;;;;;;;;;8.59;80.85;100070.19;5132858;27;19911;-86
2022/11/29 12:02:24;;;;;;;;;;;;;;;8.50;81.43;100068.44;5133015;27;19915;-88
2022/11/29 12:04:51;;;;;;;;;;;;;;;8.42;81.45;100067.53;5133074;27;19918;-87
2022/11/29 12:07:21;;;;;;;;;;;;;;;8.70;81.86;100071.06;5132963;27;19911;-87
2022/11/29 12:10:00;;;;;;;;;;;;;;;8.87;80.75;100068.38;5114471;27;20018;-87
2022/11/29 12:12:28;;;;;;;;;;;;;;;8.64;80.49;100057.03;5132781;27;19912;-88
2022/11/29 12:15:02;;;;;;;;;;;;;;;8.66;79.42;100066.66;5125539;27;19911;-87
2022/11/29 12:17:31;;;;;;;;;;;;;;;8.23;80.94;100064.91;5115906;27;19916;-88
2022/11/29 12:20:16;;;;;;;;;;;;;;;8.34;81.80;100066.66;5123137;27;19912;-87
2022/11/29 12:22:50;;;;;;;;;;;;;;;8.54;81.70;100064.03;5126855;27;19925;-88
2022/11/29 12:25:20;;;;;;;;;;;;;;;8.63;80.51;100064.03;5133630;27;19988;-89
2022/11/29 12:27:47;;;;;;;;;;;;;;;8.70;80.55;100068.41;5122166;27;20404;-89
2022/11/29 12:30:13;;;;;;;;;;;;;;;8.62;81.76;100071.94;5112830;28;19915;-89
2022/11/29 12:33:02;;;;;;;;;;;;;;;8.55;82.46;100066.66;5105799;27;19915;-88
2022/11/29 12:35:28;;;;;;;;;;;;;;;8.73;81.89;100068.41;5114234;27;20014;-91
2022/11/29 12:37:53;;;;;;;;;;;;;;;8.59;82.90;100065.81;5114850;27;20448;-90
2022/11/29 12:40:18;;;;;;;;;;;;;;;8.81;82.01;100065.78;5134151;27;19957;-89
2022/11/29 12:42:49;;;;;;;;;;;;;;;8.84;82.12;100065.75;5132152;27;19972;-89
2022/11/29 12:45:23;;;;;;;;;;;;;;;8.90;81.46;100070.16;5119675;27;19926;-87
2022/11/29 12:48:04;;;;;;;;;;;;;;;8.69;82.40;100069.28;5120461;27;20338;-86
2022/11/29 12:50:46;;;;;;;;;;;;;;;8.81;81.87;100067.53;5123669;27;19916;-86
2022/11/29 12:53:37;;;;;;;;;;;;;;;8.63;82.97;100071.06;5120142;27;19922;-87
2022/11/29 12:56:09;;;;;;;;;;;;;;;8.73;83.26;100059.66;5110198;28;19912;-88
2022/11/29 12:58:45;;;;;;;;;;;;;;;8.81;83.70;100057.88;5094529;28;20309;-86
2022/11/29 13:01:19;;;;;;;;;;;;;;;8.75;82.86;100057.88;5113295;27;19976;-87
2022/11/29 13:03:45;;;;;;;;;;;;;;;8.73;83.13;100059.66;5117690;27;19915;-86
2022/11/29 13:06:10;;;;;;;;;;;;;;;8.78;82.30;100056.13;5133096;27;20460;-86
2022/11/29 13:08:41;;;;;;;;;;;;;;;8.74;82.90;100059.66;5132590;27;19918;-86
2022/11/29 13:11:16;;;;;;;;;;;;;;;8.82;82.93;100064.91;5119993;27;19994;-85